sensor_id;sensor_type;location;lat;lon;timestamp;temperature;humidity
15922;DHT22;8060;50.948;3.146;2023-06-19T04:07:12;17.60;99.90
15922;DHT22;8060;50.948;3.146;2023-06-19T04:09:41;17.50;99.90
15922;DHT22;8060;50.948;3.146;2023-06-19T04:12:09;17.50;99.90
15922;DHT22;8060;50.948;3.146;2023-06-19T04:14:38;17.50;99.90
15922;DHT22;8060;50.948;3.146;2023-06-19T04:17:06;17.50;99.90
15922;DHT22;8060;50.948;3.146;2023-06-19T04:19:34;17.60;99.90
15922;DHT22;8060;50.948;3.146;2023-06-19T04:22:02;17.60;99.90
15922;DHT22;8060;50.948;3.146;2023-06-19T04:24:31;17.70;99.90
15922;DHT22;8060;50.948;3.146;2023-06-19T04:27:00;17.70;99.90
15922;DHT22;8060;50.948;3.146;2023-06-19T04:29:28;17.70;99.90
15922;DHT22;8060;50.948;3.146;2023-06-19T04:31:58;17.80;99.90
15922;DHT22;8060;50.948;3.146;2023-06-19T04:34:26;17.80;99.90
15922;DHT22;8060;50.948;3.146;2023-06-19T04:36:54;17.80;99.90
15922;DHT22;8060;50.948;3.146;2023-06-19T04:39:25;17.80;99.90
15922;DHT22;8060;50.948;3.146;2023-06-19T04:41:54;17.90;99.90
15922;DHT22;8060;50.948;3.146;2023-06-19T04:44:22;17.90;99.90
15922;DHT22;8060;50.948;3.146;2023-06-19T04:46:50;17.90;99.90
15922;DHT22;8060;50.948;3.146;2023-06-19T04:49:28;18.00;99.90
15922;DHT22;8060;50.948;3.146;2023-06-19T04:51:58;18.00;99.90
15922;DHT22;8060;50.948;3.146;2023-06-19T04:54:26;18.00;99.90
15922;DHT22;8060;50.948;3.146;2023-06-19T04:56:55;18.00;99.90
15922;DHT22;8060;50.948;3.146;2023-06-19T04:59:23;18.00;99.90
15922;DHT22;8060;50.948;3.146;2023-06-19T05:01:51;18.10;99.90
15922;DHT22;8060;50.948;3.146;2023-06-19T05:04:20;18.10;99.90
15922;DHT22;8060;50.948;3.146;2023-06-19T05:06:49;18.10;99.90
15922;DHT22;8060;50.948;3.146;2023-06-19T05:09:17;18.10;99.90
15922;DHT22;8060;50.948;3.146;2023-06-19T05:11:46;18.10;99.90
15922;DHT22;8060;50.948;3.146;2023-06-19T05:14:16;18.10;99.90
15922;DHT22;8060;50.948;3.146;2023-06-19T05:16:44;18.10;99.90
15922;DHT22;8060;50.948;3.146;2023-06-19T05:19:12;18.20;99.90
15922;DHT22;8060;50.948;3.146;2023-06-19T05:21:40;18.10;99.90
15922;DHT22;8060;50.948;3.146;2023-06-19T05:24:08;18.20;99.90
15922;DHT22;8060;50.948;3.146;2023-06-19T05:26:36;18.20;99.90
15922;DHT22;8060;50.948;3.146;2023-06-19T05:29:04;18.10;99.90
15922;DHT22;8060;50.948;3.146;2023-06-19T05:31:36;18.10;99.90
15922;DHT22;8060;50.948;3.146;2023-06-19T05:34:04;18.20;99.90
15922;DHT22;8060;50.948;3.146;2023-06-19T05:36:32;18.20;99.90
15922;DHT22;8060;50.948;3.146;2023-06-19T05:39:00;18.20;99.90
15922;DHT22;8060;50.948;3.146;2023-06-19T05:41:29;18.30;99.90
15922;DHT22;8060;50.948;3.146;2023-06-19T05:43:59;18.30;99.90
15922;DHT22;8060;50.948;3.146;2023-06-19T05:46:28;18.40;99.90
15922;DHT22;8060;50.948;3.146;2023-06-19T05:48:58;18.40;99.90
15922;DHT22;8060;50.948;3.146;2023-06-19T05:51:26;18.50;99.90
15922;DHT22;8060;50.948;3.146;2023-06-19T05:53:54;18.50;99.90
15922;DHT22;8060;50.948;3.146;2023-06-19T05:56:27;18.50;99.90
15922;DHT22;8060;50.948;3.146;2023-06-19T05:58:56;18.50;99.90
15922;DHT22;8060;50.948;3.146;2023-06-19T06:01:24;18.60;99.90
15922;DHT22;8060;50.948;3.146;2023-06-19T06:03:54;18.50;99.90
15922;DHT22;8060;50.948;3.146;2023-06-19T06:06:24;18.60;99.90
15922;DHT22;8060;50.948;3.146;2023-06-19T06:08:52;18.70;99.90
15922;DHT22;8060;50.948;3.146;2023-06-19T06:11:22;18.80;99.90
15922;DHT22;8060;50.948;3.146;2023-06-19T06:13:50;18.80;99.90
15922;DHT22;8060;50.948;3.146;2023-06-19T06:16:18;18.80;99.90
15922;DHT22;8060;50.948;3.146;2023-06-19T06:18:46;18.80;99.90
15922;DHT22;8060;50.948;3.146;2023-06-19T06:21:14;18.80;99.90
15922;DHT22;8060;50.948;3.146;2023-06-19T06:23:44;18.80;99.90
15922;DHT22;8060;50.948;3.146;2023-06-19T06:26:12;18.80;99.90
15922;DHT22;8060;50.948;3.146;2023-06-19T06:28:41;18.90;99.90
15922;DHT22;8060;50.948;3.146;2023-06-19T06:31:09;18.90;99.90
15922;DHT22;8060;50.948;3.146;2023-06-19T06:33:37;19.00;99.90
15922;DHT22;8060;50.948;3.146;2023-06-19T06:36:05;19.00;99.90
15922;DHT22;8060;50.948;3.146;2023-06-19T06:38:34;19.00;99.90
15922;DHT22;8060;50.948;3.146;2023-06-19T06:41:04;19.10;99.90
15922;DHT22;8060;50.948;3.146;2023-06-19T06:43:32;19.00;99.90
15922;DHT22;8060;50.948;3.146;2023-06-19T06:46:00;19.10;99.90
15922;DHT22;8060;50.948;3.146;2023-06-19T06:48:29;19.10;99.90
15922;DHT22;8060;50.948;3.146;2023-06-19T06:50:57;19.10;99.90
15922;DHT22;8060;50.948;3.146;2023-06-19T06:53:28;19.20;99.90
15922;DHT22;8060;50.948;3.146;2023-06-19T06:55:59;19.30;99.90
15922;DHT22;8060;50.948;3.146;2023-06-19T06:58:29;19.30;99.90
15922;DHT22;8060;50.948;3.146;2023-06-19T07:00:57;19.40;99.90
15922;DHT22;8060;50.948;3.146;2023-06-19T07:03:25;19.40;99.90
15922;DHT22;8060;50.948;3.146;2023-06-19T07:05:56;19.40;99.90
15922;DHT22;8060;50.948;3.146;2023-06-19T07:08:24;19.50;99.90
15922;DHT22;8060;50.948;3.146;2023-06-19T07:10:52;19.60;99.90
15922;DHT22;8060;50.948;3.146;2023-06-19T07:13:20;19.60;99.90
15922;DHT22;8060;50.948;3.146;2023-06-19T07:15:50;19.70;99.90
15922;DHT22;8060;50.948;3.146;2023-06-19T07:18:18;19.80;99.90
15922;DHT22;8060;50.948;3.146;2023-06-19T07:20:46;20.00;99.90
15922;DHT22;8060;50.948;3.146;2023-06-19T07:23:14;19.90;99.90
15922;DHT22;8060;50.948;3.146;2023-06-19T07:25:43;20.00;99.90
15922;DHT22;8060;50.948;3.146;2023-06-19T07:28:12;20.00;99.90
15922;DHT22;8060;50.948;3.146;2023-06-19T07:30:41;20.20;99.90
15922;DHT22;8060;50.948;3.146;2023-06-19T07:33:11;20.30;99.90
15922;DHT22;8060;50.948;3.146;2023-06-19T07:35:39;20.20;99.90
15922;DHT22;8060;50.948;3.146;2023-06-19T07:38:08;20.10;99.90
15922;DHT22;8060;50.948;3.146;2023-06-19T07:40:36;20.10;99.90
15922;DHT22;8060;50.948;3.146;2023-06-19T07:43:04;20.30;99.90
15922;DHT22;8060;50.948;3.146;2023-06-19T07:45:32;20.50;99.90
15922;DHT22;8060;50.948;3.146;2023-06-19T07:48:01;20.60;99.90
15922;DHT22;8060;50.948;3.146;2023-06-19T07:50:30;20.70;99.90
15922;DHT22;8060;50.948;3.146;2023-06-19T07:52:59;20.60;99.90
15922;DHT22;8060;50.948;3.146;2023-06-19T07:55:27;20.70;99.90
15922;DHT22;8060;50.948;3.146;2023-06-19T07:57:56;20.80;99.90
15922;DHT22;8060;50.948;3.146;2023-06-19T08:00:25;20.70;99.90
15922;DHT22;8060;50.948;3.146;2023-06-19T08:02:53;20.70;99.90
15922;DHT22;8060;50.948;3.146;2023-06-19T08:05:21;20.90;99.90
15922;DHT22;8060;50.948;3.146;2023-06-19T08:07:51;20.70;99.90
15922;DHT22;8060;50.948;3.146;2023-06-19T08:10:19;20.60;99.90
15922;DHT22;8060;50.948;3.146;2023-06-19T08:12:47;20.60;99.90
15922;DHT22;8060;50.948;3.146;2023-06-19T08:15:19;20.50;99.90
15922;DHT22;8060;50.948;3.146;2023-06-19T08:17:47;20.60;99.90
15922;DHT22;8060;50.948;3.146;2023-06-19T08:20:15;20.80;99.90
15922;DHT22;8060;50.948;3.146;2023-06-19T08:22:43;20.90;99.90
15922;DHT22;8060;50.948;3.146;2023-06-19T08:25:13;21.00;99.90
15922;DHT22;8060;50.948;3.146;2023-06-19T08:27:41;21.20;99.90
15922;DHT22;8060;50.948;3.146;2023-06-19T08:30:12;21.30;99.90
15922;DHT22;8060;50.948;3.146;2023-06-19T08:32:40;21.30;99.90
15922;DHT22;8060;50.948;3.146;2023-06-19T08:35:08;21.30;99.90
15922;DHT22;8060;50.948;3.146;2023-06-19T08:37:36;21.50;99.90
15922;DHT22;8060;50.948;3.146;2023-06-19T08:40:05;21.80;99.90
15922;DHT22;8060;50.948;3.146;2023-06-19T08:42:37;21.90;99.90
15922;DHT22;8060;50.948;3.146;2023-06-19T08:45:07;22.10;99.90
15922;DHT22;8060;50.948;3.146;2023-06-19T08:47:36;22.20;99.90
15922;DHT22;8060;50.948;3.146;2023-06-19T08:50:05;22.20;99.90
15922;DHT22;8060;50.948;3.146;2023-06-19T08:52:34;22.20;99.90
15922;DHT22;8060;50.948;3.146;2023-06-19T08:55:02;22.30;99.90
15922;DHT22;8060;50.948;3.146;2023-06-19T08:57:34;22.40;99.90
15922;DHT22;8060;50.948;3.146;2023-06-19T09:00:05;22.60;99.90
15922;DHT22;8060;50.948;3.146;2023-06-19T09:02:40;22.60;99.90
15922;DHT22;8060;50.948;3.146;2023-06-19T09:05:13;22.50;99.90
15922;DHT22;8060;50.948;3.146;2023-06-19T09:07:42;22.40;99.90
15922;DHT22;8060;50.948;3.146;2023-06-19T09:10:15;22.40;99.90
15922;DHT22;8060;50.948;3.146;2023-06-19T09:12:44;22.30;99.90
15922;DHT22;8060;50.948;3.146;2023-06-19T09:15:27;22.50;99.90
15922;DHT22;8060;50.948;3.146;2023-06-19T09:18:05;22.70;99.90
15922;DHT22;8060;50.948;3.146;2023-06-19T09:20:36;22.60;99.90
15922;DHT22;8060;50.948;3.146;2023-06-19T09:23:05;22.90;99.90
15922;DHT22;8060;50.948;3.146;2023-06-19T09:25:44;23.00;99.90
15922;DHT22;8060;50.948;3.146;2023-06-19T09:28:17;23.10;99.90
15922;DHT22;8060;50.948;3.146;2023-06-19T09:30:58;23.30;99.90
15922;DHT22;8060;50.948;3.146;2023-06-19T09:33:28;23.40;99.90
15922;DHT22;8060;50.948;3.146;2023-06-19T09:35:57;23.50;99.90
15922;DHT22;8060;50.948;3.146;2023-06-19T09:38:27;23.40;99.90
15922;DHT22;8060;50.948;3.146;2023-06-19T09:40:57;23.50;99.90
15922;DHT22;8060;50.948;3.146;2023-06-19T09:43:33;23.80;99.90
15922;DHT22;8060;50.948;3.146;2023-06-19T09:46:05;24.00;99.90
15922;DHT22;8060;50.948;3.146;2023-06-19T09:48:34;23.90;99.90
15922;DHT22;8060;50.948;3.146;2023-06-19T09:51:09;23.90;99.90
15922;DHT22;8060;50.948;3.146;2023-06-19T09:53:39;23.80;99.90
15922;DHT22;8060;50.948;3.146;2023-06-19T09:56:07;23.70;99.90
15922;DHT22;8060;50.948;3.146;2023-06-19T09:58:37;23.60;99.90
15922;DHT22;8060;50.948;3.146;2023-06-19T10:01:07;23.90;99.90
15922;DHT22;8060;50.948;3.146;2023-06-19T10:03:36;24.20;99.90
15922;DHT22;8060;50.948;3.146;2023-06-19T10:06:04;24.40;99.90
15922;DHT22;8060;50.948;3.146;2023-06-19T10:08:39;24.50;99.90
15922;DHT22;8060;50.948;3.146;2023-06-19T10:11:07;24.60;99.90
15922;DHT22;8060;50.948;3.146;2023-06-19T10:13:37;24.70;99.90
15922;DHT22;8060;50.948;3.146;2023-06-19T10:16:08;24.80;99.90
15922;DHT22;8060;50.948;3.146;2023-06-19T10:18:47;25.20;99.90
15922;DHT22;8060;50.948;3.146;2023-06-19T10:21:16;25.50;99.90
15922;DHT22;8060;50.948;3.146;2023-06-19T10:23:53;25.60;99.90
15922;DHT22;8060;50.948;3.146;2023-06-19T10:26:31;25.80;99.90
15922;DHT22;8060;50.948;3.146;2023-06-19T10:28:59;25.80;99.90
15922;DHT22;8060;50.948;3.146;2023-06-19T10:31:29;26.00;99.90
15922;DHT22;8060;50.948;3.146;2023-06-19T10:33:57;26.00;99.90
15922;DHT22;8060;50.948;3.146;2023-06-19T10:36:25;25.90;99.90
15922;DHT22;8060;50.948;3.146;2023-06-19T10:38:54;25.90;99.90
15922;DHT22;8060;50.948;3.146;2023-06-19T10:41:23;26.00;99.90
15922;DHT22;8060;50.948;3.146;2023-06-19T10:43:53;25.90;99.90
15922;DHT22;8060;50.948;3.146;2023-06-19T10:46:22;26.10;99.90
15922;DHT22;8060;50.948;3.146;2023-06-19T10:48:52;26.50;99.90
15922;DHT22;8060;50.948;3.146;2023-06-19T10:51:26;26.80;99.90
15922;DHT22;8060;50.948;3.146;2023-06-19T10:53:56;27.10;99.90
15922;DHT22;8060;50.948;3.146;2023-06-19T10:56:24;27.10;99.90
15922;DHT22;8060;50.948;3.146;2023-06-19T10:59:00;26.90;99.90
15922;DHT22;8060;50.948;3.146;2023-06-19T11:01:33;26.80;99.90
15922;DHT22;8060;50.948;3.146;2023-06-19T11:04:05;26.80;99.90
15922;DHT22;8060;50.948;3.146;2023-06-19T11:06:33;26.80;99.90
15922;DHT22;8060;50.948;3.146;2023-06-19T11:09:02;26.90;99.90
15922;DHT22;8060;50.948;3.146;2023-06-19T11:11:40;26.80;99.90
15922;DHT22;8060;50.948;3.146;2023-06-19T11:14:09;26.90;99.90
15922;DHT22;8060;50.948;3.146;2023-06-19T11:16:38;27.00;99.90
15922;DHT22;8060;50.948;3.146;2023-06-19T11:19:13;27.00;99.90
15922;DHT22;8060;50.948;3.146;2023-06-19T11:21:45;27.00;99.90
15922;DHT22;8060;50.948;3.146;2023-06-19T11:24:15;26.90;99.90
15922;DHT22;8060;50.948;3.146;2023-06-19T11:26:45;27.10;99.90
15922;DHT22;8060;50.948;3.146;2023-06-19T11:29:18;27.00;99.90
15922;DHT22;8060;50.948;3.146;2023-06-19T11:31:47;27.20;99.90
15922;DHT22;8060;50.948;3.146;2023-06-19T11:34:17;27.30;99.90
15922;DHT22;8060;50.948;3.146;2023-06-19T11:36:50;27.80;99.90
15922;DHT22;8060;50.948;3.146;2023-06-19T11:39:18;28.00;99.90
15922;DHT22;8060;50.948;3.146;2023-06-19T11:41:46;28.20;99.90
15922;DHT22;8060;50.948;3.146;2023-06-19T11:44:15;28.30;99.90
15922;DHT22;8060;50.948;3.146;2023-06-19T11:46:43;28.50;99.90
15922;DHT22;8060;50.948;3.146;2023-06-19T11:49:12;28.80;99.90
15922;DHT22;8060;50.948;3.146;2023-06-19T11:51:42;28.90;99.90
15922;DHT22;8060;50.948;3.146;2023-06-19T11:54:12;28.70;99.90
15922;DHT22;8060;50.948;3.146;2023-06-19T11:56:41;28.40;99.90
15922;DHT22;8060;50.948;3.146;2023-06-19T11:59:09;28.30;99.90
15922;DHT22;8060;50.948;3.146;2023-06-19T12:01:38;28.30;99.90
15922;DHT22;8060;50.948;3.146;2023-06-19T12:04:06;28.50;99.90
15922;DHT22;8060;50.948;3.146;2023-06-19T12:06:34;28.70;99.90
15922;DHT22;8060;50.948;3.146;2023-06-19T12:09:05;28.60;99.90
15922;DHT22;8060;50.948;3.146;2023-06-19T12:11:34;28.50;99.90
15922;DHT22;8060;50.948;3.146;2023-06-19T12:14:02;28.80;99.90
15922;DHT22;8060;50.948;3.146;2023-06-19T12:16:30;28.90;99.90
15922;DHT22;8060;50.948;3.146;2023-06-19T12:18:58;28.90;99.90
15922;DHT22;8060;50.948;3.146;2023-06-19T12:21:26;29.00;99.90
15922;DHT22;8060;50.948;3.146;2023-06-19T12:24:05;29.00;99.90
15922;DHT22;8060;50.948;3.146;2023-06-19T12:26:34;29.00;99.90
15922;DHT22;8060;50.948;3.146;2023-06-19T12:29:04;29.10;99.90
15922;DHT22;8060;50.948;3.146;2023-06-19T12:31:34;29.00;99.90
15922;DHT22;8060;50.948;3.146;2023-06-19T12:34:03;29.30;99.90
15922;DHT22;8060;50.948;3.146;2023-06-19T12:36:52;29.20;99.90
15922;DHT22;8060;50.948;3.146;2023-06-19T12:39:22;29.20;99.90
15922;DHT22;8060;50.948;3.146;2023-06-19T12:41:51;29.30;99.90
15922;DHT22;8060;50.948;3.146;2023-06-19T12:44:22;29.40;99.90
15922;DHT22;8060;50.948;3.146;2023-06-19T12:46:50;29.50;99.90
15922;DHT22;8060;50.948;3.146;2023-06-19T12:49:19;29.70;99.90
15922;DHT22;8060;50.948;3.146;2023-06-19T12:51:47;29.80;99.90
15922;DHT22;8060;50.948;3.146;2023-06-19T12:54:18;29.90;99.90
15922;DHT22;8060;50.948;3.146;2023-06-19T12:56:48;29.60;99.90
15922;DHT22;8060;50.948;3.146;2023-06-19T12:59:17;29.50;99.90
15922;DHT22;8060;50.948;3.146;2023-06-19T13:01:45;29.50;99.90
15922;DHT22;8060;50.948;3.146;2023-06-19T13:04:14;29.40;99.90
15922;DHT22;8060;50.948;3.146;2023-06-19T13:06:42;29.20;99.90
15922;DHT22;8060;50.948;3.146;2023-06-19T13:09:10;29.20;99.90
15922;DHT22;8060;50.948;3.146;2023-06-19T13:11:38;29.20;99.90
15922;DHT22;8060;50.948;3.146;2023-06-19T13:14:08;29.00;99.90
15922;DHT22;8060;50.948;3.146;2023-06-19T13:16:36;28.90;99.90
15922;DHT22;8060;50.948;3.146;2023-06-19T13:19:07;29.00;99.90
15922;DHT22;8060;50.948;3.146;2023-06-19T13:21:35;29.00;99.90
15922;DHT22;8060;50.948;3.146;2023-06-19T13:24:04;29.00;99.90
15922;DHT22;8060;50.948;3.146;2023-06-19T13:26:32;28.80;99.90
15922;DHT22;8060;50.948;3.146;2023-06-19T13:29:00;28.90;99.90
15922;DHT22;8060;50.948;3.146;2023-06-19T13:31:30;29.00;99.90
15922;DHT22;8060;50.948;3.146;2023-06-19T13:33:59;29.00;99.90
15922;DHT22;8060;50.948;3.146;2023-06-19T13:36:28;29.00;99.90
15922;DHT22;8060;50.948;3.146;2023-06-19T13:38:56;29.30;99.90
15922;DHT22;8060;50.948;3.146;2023-06-19T13:41:24;29.40;99.90
15922;DHT22;8060;50.948;3.146;2023-06-19T13:43:53;29.60;99.90
15922;DHT22;8060;50.948;3.146;2023-06-19T13:46:21;29.80;99.90
15922;DHT22;8060;50.948;3.146;2023-06-19T13:48:51;30.00;99.90
15922;DHT22;8060;50.948;3.146;2023-06-19T13:51:20;30.00;99.90
15922;DHT22;8060;50.948;3.146;2023-06-19T13:53:49;30.30;99.90
15922;DHT22;8060;50.948;3.146;2023-06-19T13:56:18;30.50;99.90
15922;DHT22;8060;50.948;3.146;2023-06-19T13:58:46;30.70;99.90
15922;DHT22;8060;50.948;3.146;2023-06-19T14:01:14;31.00;99.90
15922;DHT22;8060;50.948;3.146;2023-06-19T14:03:43;30.70;99.90
15922;DHT22;8060;50.948;3.146;2023-06-19T14:06:12;30.60;99.90
15922;DHT22;8060;50.948;3.146;2023-06-19T14:08:40;30.40;99.90
15922;DHT22;8060;50.948;3.146;2023-06-19T14:11:08;30.20;99.90
15922;DHT22;8060;50.948;3.146;2023-06-19T14:13:37;30.00;99.90
15922;DHT22;8060;50.948;3.146;2023-06-19T14:16:05;29.60;99.90
15922;DHT22;8060;50.948;3.146;2023-06-19T14:18:33;29.80;99.90
15922;DHT22;8060;50.948;3.146;2023-06-19T14:21:03;29.80;99.90
15922;DHT22;8060;50.948;3.146;2023-06-19T14:23:33;29.90;99.90
15922;DHT22;8060;50.948;3.146;2023-06-19T14:26:07;30.00;99.90
15922;DHT22;8060;50.948;3.146;2023-06-19T14:28:36;30.10;99.90
15922;DHT22;8060;50.948;3.146;2023-06-19T14:31:05;30.20;99.90
15922;DHT22;8060;50.948;3.146;2023-06-19T14:33:33;30.00;99.90
15922;DHT22;8060;50.948;3.146;2023-06-19T14:36:03;29.80;99.90
15922;DHT22;8060;50.948;3.146;2023-06-19T14:38:33;29.80;99.90
15922;DHT22;8060;50.948;3.146;2023-06-19T14:41:01;29.80;99.90
15922;DHT22;8060;50.948;3.146;2023-06-19T14:43:30;29.70;99.90
15922;DHT22;8060;50.948;3.146;2023-06-19T14:46:00;29.70;99.90
15922;DHT22;8060;50.948;3.146;2023-06-19T14:48:28;29.80;99.90
15922;DHT22;8060;50.948;3.146;2023-06-19T14:50:58;29.80;99.90
15922;DHT22;8060;50.948;3.146;2023-06-19T14:53:26;29.80;99.90
15922;DHT22;8060;50.948;3.146;2023-06-19T14:55:55;29.90;99.90
15922;DHT22;8060;50.948;3.146;2023-06-19T14:58:24;29.60;99.90
15922;DHT22;8060;50.948;3.146;2023-06-19T15:00:55;29.70;99.90
15922;DHT22;8060;50.948;3.146;2023-06-19T15:03:24;29.80;99.90
15922;DHT22;8060;50.948;3.146;2023-06-19T15:05:53;29.90;99.90
15922;DHT22;8060;50.948;3.146;2023-06-19T15:08:21;29.80;99.90
15922;DHT22;8060;50.948;3.146;2023-06-19T15:10:51;29.80;99.90
15922;DHT22;8060;50.948;3.146;2023-06-19T15:13:20;29.80;99.90
15922;DHT22;8060;50.948;3.146;2023-06-19T15:15:48;29.70;99.90
15922;DHT22;8060;50.948;3.146;2023-06-19T15:18:17;29.60;99.90
15922;DHT22;8060;50.948;3.146;2023-06-19T15:20:46;29.50;99.90
15922;DHT22;8060;50.948;3.146;2023-06-19T15:23:14;29.40;99.90
15922;DHT22;8060;50.948;3.146;2023-06-19T15:25:42;29.40;99.90
15922;DHT22;8060;50.948;3.146;2023-06-19T15:28:10;29.30;99.90
15922;DHT22;8060;50.948;3.146;2023-06-19T15:30:40;29.20;99.90
15922;DHT22;8060;50.948;3.146;2023-06-19T15:33:08;28.90;99.90
15922;DHT22;8060;50.948;3.146;2023-06-19T15:35:36;28.90;99.90
15922;DHT22;8060;50.948;3.146;2023-06-19T15:38:04;28.90;99.90
15922;DHT22;8060;50.948;3.146;2023-06-19T15:40:32;28.60;99.90
15922;DHT22;8060;50.948;3.146;2023-06-19T15:43:01;28.50;99.90
15922;DHT22;8060;50.948;3.146;2023-06-19T15:45:29;28.50;99.90
15922;DHT22;8060;50.948;3.146;2023-06-19T15:47:58;28.40;99.90
15922;DHT22;8060;50.948;3.146;2023-06-19T15:50:27;28.30;99.90
15922;DHT22;8060;50.948;3.146;2023-06-19T15:52:55;28.40;99.90
15922;DHT22;8060;50.948;3.146;2023-06-19T15:55:23;28.30;99.90
15922;DHT22;8060;50.948;3.146;2023-06-19T15:57:53;28.40;99.90
15922;DHT22;8060;50.948;3.146;2023-06-19T16:00:21;28.30;99.90
15922;DHT22;8060;50.948;3.146;2023-06-19T16:02:50;28.10;99.90
15922;DHT22;8060;50.948;3.146;2023-06-19T16:05:19;28.10;99.90
15922;DHT22;8060;50.948;3.146;2023-06-19T16:07:47;28.10;99.90
15922;DHT22;8060;50.948;3.146;2023-06-19T16:10:16;28.00;99.90
15922;DHT22;8060;50.948;3.146;2023-06-19T16:12:44;28.00;99.90
15922;DHT22;8060;50.948;3.146;2023-06-19T16:15:12;28.00;99.90
15922;DHT22;8060;50.948;3.146;2023-06-19T16:17:41;28.00;99.90
15922;DHT22;8060;50.948;3.146;2023-06-19T16:20:11;28.10;99.90
15922;DHT22;8060;50.948;3.146;2023-06-19T16:22:40;28.20;99.90
15922;DHT22;8060;50.948;3.146;2023-06-19T16:25:09;28.20;99.90
15922;DHT22;8060;50.948;3.146;2023-06-19T16:27:37;28.20;99.90
15922;DHT22;8060;50.948;3.146;2023-06-19T16:30:06;28.30;99.90
15922;DHT22;8060;50.948;3.146;2023-06-19T16:32:35;28.50;99.90
15922;DHT22;8060;50.948;3.146;2023-06-19T16:35:04;28.40;99.90
15922;DHT22;8060;50.948;3.146;2023-06-19T16:37:32;28.40;99.90
15922;DHT22;8060;50.948;3.146;2023-06-19T16:40:02;28.40;99.90
15922;DHT22;8060;50.948;3.146;2023-06-19T16:42:32;28.30;99.90
15922;DHT22;8060;50.948;3.146;2023-06-19T16:45:00;28.20;99.90
15922;DHT22;8060;50.948;3.146;2023-06-19T16:47:28;28.00;99.90
15922;DHT22;8060;50.948;3.146;2023-06-19T16:49:56;27.90;99.90
15922;DHT22;8060;50.948;3.146;2023-06-19T16:52:24;27.70;99.90
15922;DHT22;8060;50.948;3.146;2023-06-19T16:54:53;27.70;99.90
15922;DHT22;8060;50.948;3.146;2023-06-19T16:57:23;27.70;99.90
15922;DHT22;8060;50.948;3.146;2023-06-19T16:59:52;27.70;99.90
15922;DHT22;8060;50.948;3.146;2023-06-19T17:02:21;27.60;99.90
15922;DHT22;8060;50.948;3.146;2023-06-19T17:04:49;27.60;99.90
15922;DHT22;8060;50.948;3.146;2023-06-19T17:07:17;27.60;99.90
15922;DHT22;8060;50.948;3.146;2023-06-19T17:09:45;27.50;99.90
15922;DHT22;8060;50.948;3.146;2023-06-19T17:12:13;27.40;99.90
15922;DHT22;8060;50.948;3.146;2023-06-19T17:14:43;27.40;99.90
15922;DHT22;8060;50.948;3.146;2023-06-19T17:17:11;27.30;99.90
15922;DHT22;8060;50.948;3.146;2023-06-19T17:19:39;27.40;99.90
15922;DHT22;8060;50.948;3.146;2023-06-19T17:22:08;27.40;99.90
15922;DHT22;8060;50.948;3.146;2023-06-19T17:24:36;27.40;99.90
15922;DHT22;8060;50.948;3.146;2023-06-19T17:27:06;27.30;99.90
15922;DHT22;8060;50.948;3.146;2023-06-19T17:29:34;27.30;99.90
15922;DHT22;8060;50.948;3.146;2023-06-19T17:32:05;27.30;99.90
15922;DHT22;8060;50.948;3.146;2023-06-19T17:34:34;27.30;99.90
15922;DHT22;8060;50.948;3.146;2023-06-19T17:37:03;27.30;99.90
15922;DHT22;8060;50.948;3.146;2023-06-19T17:39:31;27.20;99.90
15922;DHT22;8060;50.948;3.146;2023-06-19T17:41:59;27.20;99.90
15922;DHT22;8060;50.948;3.146;2023-06-19T17:44:27;27.10;99.90
15922;DHT22;8060;50.948;3.146;2023-06-19T17:46:57;27.10;99.90
15922;DHT22;8060;50.948;3.146;2023-06-19T17:49:27;27.20;99.90
15922;DHT22;8060;50.948;3.146;2023-06-19T17:51:55;27.10;99.90
15922;DHT22;8060;50.948;3.146;2023-06-19T17:54:23;27.00;99.90
15922;DHT22;8060;50.948;3.146;2023-06-19T17:56:51;27.00;99.90
15922;DHT22;8060;50.948;3.146;2023-06-19T17:59:20;27.00;99.90
15922;DHT22;8060;50.948;3.146;2023-06-19T18:01:48;27.00;99.90
15922;DHT22;8060;50.948;3.146;2023-06-19T18:04:16;26.90;99.90
15922;DHT22;8060;50.948;3.146;2023-06-19T18:06:46;27.00;99.90
15922;DHT22;8060;50.948;3.146;2023-06-19T18:09:14;27.00;99.90
15922;DHT22;8060;50.948;3.146;2023-06-19T18:11:42;27.00;99.90
15922;DHT22;8060;50.948;3.146;2023-06-19T18:14:12;27.00;99.90
15922;DHT22;8060;50.948;3.146;2023-06-19T18:16:40;26.90;99.90
15922;DHT22;8060;50.948;3.146;2023-06-19T18:19:09;26.90;99.90
15922;DHT22;8060;50.948;3.146;2023-06-19T18:21:37;26.90;99.90
15922;DHT22;8060;50.948;3.146;2023-06-19T18:24:07;26.90;99.90
15922;DHT22;8060;50.948;3.146;2023-06-19T18:26:35;26.90;99.90
15922;DHT22;8060;50.948;3.146;2023-06-19T18:29:03;26.90;99.90
15922;DHT22;8060;50.948;3.146;2023-06-19T18:31:32;26.90;99.90
15922;DHT22;8060;50.948;3.146;2023-06-19T18:34:00;26.90;99.90
15922;DHT22;8060;50.948;3.146;2023-06-19T18:36:28;26.90;99.90
15922;DHT22;8060;50.948;3.146;2023-06-19T18:38:56;26.80;99.90
15922;DHT22;8060;50.948;3.146;2023-06-19T18:41:25;26.80;99.90
15922;DHT22;8060;50.948;3.146;2023-06-19T18:43:54;26.80;99.90
15922;DHT22;8060;50.948;3.146;2023-06-19T18:46:22;26.80;99.90
15922;DHT22;8060;50.948;3.146;2023-06-19T18:48:50;26.80;99.90
15922;DHT22;8060;50.948;3.146;2023-06-19T18:51:18;26.70;99.90
15922;DHT22;8060;50.948;3.146;2023-06-19T18:53:46;26.60;99.90
15922;DHT22;8060;50.948;3.146;2023-06-19T18:56:14;26.60;99.90
15922;DHT22;8060;50.948;3.146;2023-06-19T18:58:46;26.60;99.90
15922;DHT22;8060;50.948;3.146;2023-06-19T19:01:14;26.50;99.90
15922;DHT22;8060;50.948;3.146;2023-06-19T19:03:42;26.40;99.90
15922;DHT22;8060;50.948;3.146;2023-06-19T19:06:10;26.40;99.90
